Current Weather

Kalamazoo/Battle Creek Intl

Kalamazoo, Michigan (KAZO)

Report from: Tuesday, July 16, 2024 4:53 AM EDT
Current time: Tuesday, July 16, 2024 5:38 AM EDT

Nearby weather – Weather history – Daily summaries
Weather forecast

Temperature20.6°C (69.1°F)
Dew point18.9°C (66.0°F)
Winds 10 kts (5.1 m/s, 11.5 mph) West (280°)
Visibility10 mi. (16.1 km)
Clouds Scattered clouds 700 ft. (213 m)
Altimeter29.74 in.Hg (1007 mB)
Precipitiation0.01 in. (0 mm)
Precip. events Rain ended 4:14 AM
Precip last 3 hours0.01 in. (0 mm)
Relative humidity90 %
Density altitude1,180 ft. (360 m)
Sea-level pressure100.7 kPa (1007 mB, 29.72 in.Hg)
Remarks Fully automated report
Automated weather observing station with precipitation discriminator
Pressure rising more slowly
Flight conditions Visual Meteorological Conditions
Raw dataKAZO 160853Z AUTO 28010KT 10SM SCT007 21/19 A2974 RMK AO2 RAE14 SLP065 P0001 60001 T02060189 51055
An error has occurred. This application may no longer respond until reloaded. Reload 🗙